Time;durP1;ratioP1;P1;durP2;ratioP2;P2;SDS_P1;SDS_P2;PMS_P1;PMS_P2;Temp;Humidity;BMP_temperature;BMP_pressure;BME280_temperature;BME280_humidity;BME280_pressure;Samples;Min_cycle;Max_cycle;Signal;HPM_P1;HPM_P2
2022/08/15 00:01:06;;;;;;;0.90;0.90;;;26.00;62.40;;;;;;5065836;28;44336;-74
2022/08/15 00:03:38;;;;;;;1.17;1.17;;;26.00;62.60;;;;;;5065343;28;43928;-72
2022/08/15 00:06:38;;;;;;;1.00;1.00;;;25.90;62.90;;;;;;5066974;28;43439;-74
2022/08/15 00:09:13;;;;;;;1.10;1.10;;;25.90;63.00;;;;;;5067037;28;44794;-73
2022/08/15 00:11:43;;;;;;;1.10;1.10;;;25.90;63.00;;;;;;5060445;28;43951;-74
2022/08/15 00:14:15;;;;;;;1.00;1.00;;;25.80;63.30;;;;;;5067252;28;44039;-74
2022/08/15 00:16:58;;;;;;;1.00;1.00;;;25.80;63.40;;;;;;5067392;28;44194;-73
2022/08/15 00:19:30;;;;;;;0.90;0.90;;;25.80;63.40;;;;;;5066150;28;44836;-74
2022/08/15 00:22:01;;;;;;;1.00;1.00;;;25.80;63.40;;;;;;5066778;28;44043;-73
2022/08/15 00:24:34;;;;;;;1.00;1.00;;;25.70;63.60;;;;;;5066739;28;43408;-74
2022/08/15 00:27:03;;;;;;;1.00;1.00;;;25.70;63.70;;;;;;5065645;28;44016;-74
2022/08/15 00:29:37;;;;;;;1.05;1.05;;;25.80;63.50;;;;;;5066139;28;43928;-73
2022/08/15 00:32:08;;;;;;;1.10;1.10;;;25.90;63.20;;;;;;5065086;28;44619;-74
2022/08/15 00:34:56;;;;;;;1.10;1.10;;;26.00;62.80;;;;;;5066689;28;44019;-73
2022/08/15 00:37:24;;;;;;;1.00;1.00;;;26.10;62.40;;;;;;5065207;28;43934;-73
2022/08/15 00:39:54;;;;;;;0.90;0.90;;;26.10;62.40;;;;;;5064619;28;45604;-73
2022/08/15 00:42:24;;;;;;;1.10;1.10;;;26.00;62.60;;;;;;5065895;28;43893;-74
2022/08/15 00:44:57;;;;;;;1.05;1.05;;;26.00;62.80;;;;;;5066450;28;44026;-74
2022/08/15 00:47:40;;;;;;;1.03;1.03;;;25.90;62.80;;;;;;5065283;28;43981;-73
2022/08/15 00:50:09;;;;;;;1.27;1.00;;;25.90;62.90;;;;;;5064667;28;45618;-73
2022/08/15 00:52:59;;;;;;;1.02;1.02;;;25.90;63.40;;;;;;5066119;28;43991;-73
2022/08/15 00:55:29;;;;;;;1.10;1.10;;;25.90;63.40;;;;;;5064273;28;43517;-74
2022/08/15 00:57:58;;;;;;;1.08;1.08;;;25.90;63.40;;;;;;5064979;28;44311;-74
2022/08/15 01:00:34;;;;;;;1.00;1.00;;;25.80;63.40;;;;;;5065655;28;43606;-73
2022/08/15 01:03:07;;;;;;;1.20;1.20;;;25.70;63.60;;;;;;5064694;28;44974;-74
2022/08/15 01:05:45;;;;;;;1.00;1.00;;;25.80;63.80;;;;;;5064141;28;43409;-73
2022/08/15 01:08:19;;;;;;;1.00;1.00;;;25.90;63.50;;;;;;5066427;28;44065;-73
2022/08/15 01:11:06;;;;;;;0.88;0.88;;;25.90;63.10;;;;;;5065797;28;44177;-74
2022/08/15 01:13:35;;;;;;;1.00;1.00;;;26.00;62.70;;;;;;5065395;28;44063;-73
2022/08/15 01:16:24;;;;;;;1.03;1.03;;;26.10;62.40;;;;;;5064426;28;43987;-74
2022/08/15 01:19:03;;;;;;;1.00;1.00;;;26.10;62.40;;;;;;5065838;28;43454;-74
2022/08/15 01:21:38;;;;;;;0.90;0.90;;;26.00;62.70;;;;;;5059263;28;44000;-73
2022/08/15 01:24:14;;;;;;;1.13;1.13;;;26.00;63.00;;;;;;5061157;28;44225;-73
2022/08/15 01:26:46;;;;;;;1.10;1.10;;;25.90;62.90;;;;;;5064206;28;43890;-72
2022/08/15 01:29:18;;;;;;;1.00;1.00;;;25.90;62.90;;;;;;5066202;28;43379;-74
2022/08/15 01:31:46;;;;;;;1.30;1.30;;;25.90;63.20;;;;;;5064039;28;45376;-73
2022/08/15 01:34:17;;;;;;;2.03;1.10;;;25.80;63.50;;;;;;5064156;28;45272;-74
2022/08/15 01:36:47;;;;;;;1.00;1.00;;;25.80;63.50;;;;;;5065773;28;44117;-73
2022/08/15 01:39:20;;;;;;;0.90;0.90;;;25.80;63.40;;;;;;5065702;28;44034;-74
2022/08/15 01:41:52;;;;;;;1.10;1.10;;;25.80;63.50;;;;;;5063410;28;45583;-73
2022/08/15 01:44:26;;;;;;;1.08;1.08;;;25.70;63.80;;;;;;5063681;28;44018;-74
2022/08/15 01:47:06;;;;;;;1.00;1.00;;;25.80;63.70;;;;;;5064304;28;43395;-73
2022/08/15 01:49:47;;;;;;;0.98;0.98;;;25.90;63.50;;;;;;5059134;28;44033;-74
2022/08/15 01:52:39;;;;;;;1.00;1.00;;;26.00;63.00;;;;;;5063361;28;44844;-74
2022/08/15 01:55:39;;;;;;;0.90;0.90;;;26.00;62.60;;;;;;5063229;28;44094;-73
2022/08/15 01:58:22;;;;;;;1.03;1.03;;;26.00;62.70;;;;;;5064076;28;43968;-74
2022/08/15 02:00:54;;;;;;;1.08;1.08;;;25.90;63.10;;;;;;5064577;28;43543;-73
2022/08/15 02:03:33;;;;;;;0.98;0.98;;;25.90;63.20;;;;;;5068516;28;43883;-73
2022/08/15 02:06:19;;;;;;;1.00;1.00;;;25.90;63.20;;;;;;5067337;28;44373;-74
2022/08/15 02:09:02;;;;;;;1.27;1.27;;;25.80;63.20;;;;;;5067486;28;44086;-74
2022/08/15 02:11:47;;;;;;;1.07;1.07;;;25.80;63.80;;;;;;5067977;28;44260;-74
2022/08/15 02:14:31;;;;;;;0.80;0.80;;;25.70;63.70;;;;;;5066937;28;44046;-72
2022/08/15 02:17:11;;;;;;;1.10;1.10;;;25.70;63.60;;;;;;5068872;28;44084;-73
2022/08/15 02:19:42;;;;;;;1.00;1.00;;;25.70;63.60;;;;;;5066562;28;44071;-73
2022/08/15 02:22:19;;;;;;;1.23;1.00;;;25.70;64.00;;;;;;5068976;28;43987;-73
2022/08/15 02:24:56;;;;;;;0.90;0.90;;;25.70;63.90;;;;;;5067160;28;44042;-73
2022/08/15 02:27:24;;;;;;;1.00;1.00;;;25.90;63.70;;;;;;5066720;28;44719;-72
2022/08/15 02:29:54;;;;;;;1.00;1.00;;;25.90;63.30;;;;;;5067185;28;43940;-73
2022/08/15 02:32:25;;;;;;;1.10;1.10;;;26.00;63.00;;;;;;5067265;28;43427;-74
2022/08/15 02:34:59;;;;;;;1.20;1.10;;;26.00;62.70;;;;;;5066660;28;45342;-74
2022/08/15 02:37:30;;;;;;;1.02;1.02;;;25.90;63.10;;;;;;5067647;28;44015;-73
2022/08/15 02:40:07;;;;;;;1.10;1.10;;;25.90;63.30;;;;;;5066728;28;43925;-72
2022/08/15 02:42:55;;;;;;;1.10;1.10;;;25.90;63.30;;;;;;5067314;28;43932;-74
2022/08/15 02:45:24;;;;;;;0.80;0.80;;;25.90;63.20;;;;;;5061390;28;44825;-73
2022/08/15 02:47:55;;;;;;;1.00;1.00;;;25.80;63.30;;;;;;5060871;28;43964;-74
2022/08/15 02:50:23;;;;;;;0.90;0.90;;;25.80;63.80;;;;;;5067617;28;43281;-72
2022/08/15 02:52:53;;;;;;;1.10;1.10;;;25.80;64.00;;;;;;5066940;28;43451;-73
2022/08/15 02:55:23;;;;;;;1.00;1.00;;;25.90;63.60;;;;;;5066193;28;45005;-72
2022/08/15 02:57:58;;;;;;;1.10;1.10;;;25.90;63.20;;;;;;5066379;28;44018;-73
2022/08/15 03:00:35;;;;;;;1.00;1.00;;;25.90;63.30;;;;;;5066281;28;43999;-74
2022/08/15 03:03:08;;;;;;;1.00;1.00;;;25.90;63.60;;;;;;5066948;28;43559;-73
2022/08/15 03:05:45;;;;;;;1.00;1.00;;;25.80;63.60;;;;;;5065871;28;43911;-74
2022/08/15 03:08:22;;;;;;;0.90;0.90;;;25.80;63.60;;;;;;5066288;28;43972;-74
2022/08/15 03:10:50;;;;;;;0.80;0.80;;;25.80;63.50;;;;;;5066918;28;43790;-74
2022/08/15 03:13:22;;;;;;;0.98;0.98;;;25.70;63.70;;;;;;5066174;28;43633;-73
2022/08/15 03:15:53;;;;;;;1.00;1.00;;;25.80;64.00;;;;;;5066320;28;45403;-74
2022/08/15 03:18:30;;;;;;;1.10;1.10;;;25.80;63.90;;;;;;5065528;28;43875;-72
2022/08/15 03:21:05;;;;;;;1.10;1.10;;;25.80;63.60;;;;;;5066075;28;43901;-73
2022/08/15 03:23:34;;;;;;;1.08;1.08;;;25.90;63.30;;;;;;5065907;28;44055;-74
2022/08/15 03:26:11;;;;;;;1.10;1.10;;;25.90;63.30;;;;;;5066337;28;44165;-73
2022/08/15 03:29:01;;;;;;;1.20;1.20;;;25.80;63.50;;;;;;5066696;28;45117;-74
2022/08/15 03:31:38;;;;;;;1.30;1.30;;;25.80;63.60;;;;;;5067057;28;44279;-73
2022/08/15 03:34:12;;;;;;;1.10;1.10;;;25.80;63.60;;;;;;5066253;28;43982;-73
2022/08/15 03:36:45;;;;;;;1.30;1.30;;;25.80;63.50;;;;;;5067274;28;43889;-74
2022/08/15 03:39:21;;;;;;;1.30;1.30;;;25.80;64.00;;;;;;5065443;28;45584;-74
2022/08/15 03:41:51;;;;;;;1.40;1.40;;;25.70;64.00;;;;;;5065313;28;43482;-73
2022/08/15 03:44:23;;;;;;;1.30;1.30;;;25.70;64.00;;;;;;5065696;28;43992;-73
2022/08/15 03:46:55;;;;;;;1.40;1.30;;;25.70;63.80;;;;;;5065802;28;46494;-74
2022/08/15 03:49:24;;;;;;;1.45;1.45;;;25.70;64.10;;;;;;5065242;28;43446;-72
2022/08/15 03:52:12;;;;;;;1.80;1.70;;;25.70;64.40;;;;;;5066109;28;43969;-74
2022/08/15 03:54:42;;;;;;;1.67;1.58;;;25.70;64.20;;;;;;5065914;28;43927;-74
2022/08/15 03:57:18;;;;;;;1.70;1.60;;;25.80;64.00;;;;;;5065747;28;45696;-73
2022/08/15 03:59:50;;;;;;;1.60;1.60;;;25.90;64.30;;;;;;5065863;28;44368;-73
2022/08/15 04:02:24;;;;;;;1.80;1.70;;;26.00;63.20;;;;;;5065768;28;43982;-73
2022/08/15 04:05:11;;;;;;;1.87;1.77;;;26.00;63.00;;;;;;5066724;28;44055;-74
2022/08/15 04:07:39;;;;;;;1.50;1.50;;;26.00;63.00;;;;;;5065589;28;46606;-74
2022/08/15 04:10:13;;;;;;;1.73;1.63;;;25.90;63.50;;;;;;5065743;28;43896;-73
2022/08/15 04:13:03;;;;;;;2.00;1.90;;;25.90;63.50;;;;;;5066000;28;43911;-73
2022/08/15 04:15:35;;;;;;;1.70;1.60;;;25.90;63.50;;;;;;5065078;28;43534;-73
2022/08/15 04:18:05;;;;;;;1.90;1.80;;;25.80;63.50;;;;;;5065376;28;43994;-73
2022/08/15 04:20:54;;;;;;;2.65;1.90;;;25.70;64.00;;;;;;5065774;28;44866;-74
2022/08/15 04:23:23;;;;;;;1.92;1.83;;;25.80;64.00;;;;;;5064731;28;44004;-74
2022/08/15 04:25:51;;;;;;;2.00;1.80;;;25.70;63.90;;;;;;5065296;28;44246;-73
2022/08/15 04:28:26;;;;;;;1.90;1.80;;;25.70;64.10;;;;;;5065077;28;43876;-75
2022/08/15 04:31:16;;;;;;;2.10;2.00;;;25.60;64.30;;;;;;5065476;28;43506;-73
2022/08/15 04:33:48;;;;;;;1.90;1.80;;;25.60;64.30;;;;;;5065506;28;44006;-74
2022/08/15 04:36:37;;;;;;;2.27;2.07;;;25.70;64.30;;;;;;5065817;28;44023;-72
2022/08/15 04:39:07;;;;;;;2.00;1.90;;;25.60;64.60;;;;;;5064921;28;43829;-75
2022/08/15 04:41:48;;;;;;;2.00;1.90;;;25.60;64.60;;;;;;5062874;28;43828;-73
2022/08/15 04:44:21;;;;;;;2.00;2.00;;;25.70;64.50;;;;;;5065350;28;43493;-73
2022/08/15 04:46:56;;;;;;;2.10;2.00;;;25.80;64.10;;;;;;5065559;28;43930;-73
2022/08/15 04:49:26;;;;;;;2.10;2.00;;;25.90;63.80;;;;;;5064884;28;45537;-73
2022/08/15 04:51:54;;;;;;;2.07;1.97;;;25.90;63.40;;;;;;5066826;28;43970;-74
2022/08/15 04:54:25;;;;;;;2.00;1.90;;;26.00;63.20;;;;;;5065502;28;44497;-73
2022/08/15 04:57:15;;;;;;;2.20;2.10;;;25.90;63.20;;;;;;5062338;28;44202;-74
2022/08/15 04:59:46;;;;;;;2.10;2.00;;;25.90;63.80;;;;;;5064654;28;45874;-73
2022/08/15 05:03:03;;;;;;;1.98;1.88;;;25.80;63.60;;;;;;5066307;28;43986;-74
2022/08/15 05:05:36;;;;;;;2.05;1.95;;;25.80;63.70;;;;;;5064537;28;43884;-74
2022/08/15 05:08:06;;;;;;;2.50;2.30;;;25.80;64.10;;;;;;5065488;28;44237;-73
2022/08/15 05:10:42;;;;;;;2.17;2.00;;;25.70;64.30;;;;;;5064815;28;44071;-73
2022/08/15 05:13:13;;;;;;;2.70;2.13;;;25.80;64.40;;;;;;5065059;28;43994;-73
2022/08/15 05:15:41;;;;;;;2.35;2.22;;;25.70;64.00;;;;;;5064987;28;44109;-74
2022/08/15 05:18:22;;;;;;;2.35;2.10;;;25.70;64.50;;;;;;5065013;28;44043;-73
2022/08/15 05:20:51;;;;;;;2.00;1.90;;;25.60;64.60;;;;;;5064973;28;44131;-74
2022/08/15 05:23:21;;;;;;;2.40;2.20;;;25.70;64.50;;;;;;5064457;28;45629;-74
2022/08/15 05:26:15;;;;;;;2.10;2.00;;;25.80;64.10;;;;;;5064768;28;43983;-74
2022/08/15 05:29:06;;;;;;;2.08;1.98;;;25.90;63.80;;;;;;5066812;28;44075;-74
2022/08/15 05:31:35;;;;;;;2.10;2.00;;;25.90;63.50;;;;;;5064486;28;44016;-73
2022/08/15 05:34:09;;;;;;;2.60;2.23;;;25.90;63.60;;;;;;5065034;28;44756;-73
2022/08/15 05:36:52;;;;;;;2.50;2.40;;;25.80;63.90;;;;;;5066598;28;43998;-74
2022/08/15 05:39:22;;;;;;;2.25;2.15;;;25.80;64.10;;;;;;5068540;28;44007;-73
2022/08/15 05:41:56;;;;;;;2.08;1.95;;;25.80;64.10;;;;;;5067439;28;44883;-73
2022/08/15 05:44:29;;;;;;;2.40;2.20;;;25.70;63.70;;;;;;5068175;28;43982;-74
2022/08/15 05:47:27;;;;;;;2.93;2.73;;;25.70;64.50;;;;;;5068238;28;43984;-73
2022/08/15 05:49:57;;;;;;;2.22;2.13;;;25.70;64.70;;;;;;5068597;28;44016;-74
2022/08/15 05:52:41;;;;;;;2.40;2.30;;;25.80;64.50;;;;;;5067809;28;44141;-74
2022/08/15 05:55:20;;;;;;;2.20;2.10;;;25.90;64.10;;;;;;5068240;28;44576;-73
2022/08/15 05:58:01;;;;;;;2.50;2.40;;;25.90;63.60;;;;;;5067947;28;43359;-74
2022/08/15 06:01:05;;;;;;;2.72;2.53;;;25.90;63.60;;;;;;5068257;28;44089;-73
2022/08/15 06:03:43;;;;;;;2.50;2.30;;;25.90;63.80;;;;;;5069113;28;43930;-74
2022/08/15 06:06:19;;;;;;;2.87;2.67;;;25.80;64.10;;;;;;5068022;28;45542;-74
2022/08/15 06:09:05;;;;;;;2.40;2.20;;;25.80;64.20;;;;;;5068154;28;43377;-74
2022/08/15 06:11:38;;;;;;;2.42;2.22;;;25.80;63.90;;;;;;5068015;28;43893;-74
2022/08/15 06:14:19;;;;;;;2.67;2.47;;;25.70;64.30;;;;;;5067807;28;45608;-72
2022/08/15 06:16:53;;;;;;;2.20;2.10;;;25.70;64.80;;;;;;5068953;28;43718;-74
2022/08/15 06:19:26;;;;;;;2.70;2.50;;;25.70;64.70;;;;;;5067403;28;44052;-74
2022/08/15 06:22:09;;;;;;;2.17;2.08;;;25.70;64.30;;;;;;5068095;28;44196;-72
2022/08/15 06:24:51;;;;;;;2.37;2.17;;;25.60;64.30;;;;;;5067413;28;45019;-73
2022/08/15 06:27:31;;;;;;;2.47;2.08;;;25.60;65.00;;;;;;5061434;28;43888;-73
2022/08/15 06:30:10;;;;;;;2.57;2.47;;;25.60;64.90;;;;;;5067975;28;43925;-73
2022/08/15 06:32:47;;;;;;;2.37;2.27;;;25.80;64.50;;;;;;5067798;28;44035;-73
2022/08/15 06:35:28;;;;;;;2.57;2.40;;;25.90;64.20;;;;;;5067132;28;44807;-74
2022/08/15 06:38:13;;;;;;;2.27;2.17;;;25.90;63.90;;;;;;5066980;28;43956;-74
2022/08/15 06:41:07;;;;;;;2.22;2.13;;;25.90;63.90;;;;;;5067012;28;44063;-73
2022/08/15 06:43:35;;;;;;;2.47;2.38;;;25.90;64.10;;;;;;5067764;28;44099;-73
2022/08/15 06:46:07;;;;;;;2.50;2.40;;;25.80;64.30;;;;;;5067669;28;45843;-73
2022/08/15 06:48:57;;;;;;;2.23;2.13;;;25.80;64.30;;;;;;5067043;28;45892;-73
2022/08/15 06:51:39;;;;;;;2.60;2.40;;;25.70;63.80;;;;;;5067346;28;43833;-74
2022/08/15 06:54:17;;;;;;;2.55;2.35;;;25.70;64.70;;;;;;5067735;28;43525;-73
2022/08/15 06:57:11;;;;;;;2.20;2.10;;;25.60;64.80;;;;;;5066923;28;44179;-73
2022/08/15 06:59:58;;;;;;;2.40;2.30;;;25.70;64.70;;;;;;5066895;28;43952;-73
2022/08/15 07:02:38;;;;;;;2.25;2.15;;;25.60;64.20;;;;;;5066776;28;44065;-74
2022/08/15 07:05:13;;;;;;;2.40;2.30;;;25.60;65.10;;;;;;5067686;28;43577;-73
2022/08/15 07:07:54;;;;;;;2.47;2.37;;;25.60;65.00;;;;;;5066701;28;43978;-74
2022/08/15 07:10:29;;;;;;;2.28;2.15;;;25.70;64.70;;;;;;5066434;28;43978;-73
2022/08/15 07:13:04;;;;;;;2.28;2.17;;;25.80;64.40;;;;;;5066934;28;43965;-74
2022/08/15 07:15:46;;;;;;;2.40;2.27;;;25.90;64.30;;;;;;5067619;28;44127;-73
2022/08/15 07:18:23;;;;;;;2.40;2.30;;;25.90;64.30;;;;;;5066482;28;44007;-73
2022/08/15 07:21:03;;;;;;;2.55;2.40;;;25.80;64.30;;;;;;5066664;28;44070;-73
2022/08/15 07:24:02;;;;;;;2.33;2.23;;;25.80;64.70;;;;;;5066946;28;44197;-73
2022/08/15 07:26:52;;;;;;;2.20;2.10;;;25.70;64.60;;;;;;5064879;28;43951;-72
2022/08/15 07:29:29;;;;;;;2.47;2.37;;;25.70;64.10;;;;;;5066449;28;44046;-73
2022/08/15 07:32:00;;;;;;;2.40;2.30;;;25.60;65.00;;;;;;5066466;28;44658;-74
2022/08/15 07:34:57;;;;;;;2.43;2.20;;;25.60;65.10;;;;;;5067919;28;43407;-74
2022/08/15 07:37:32;;;;;;;2.20;2.10;;;25.60;65.00;;;;;;5066674;28;43936;-74
2022/08/15 07:40:09;;;;;;;2.80;2.60;;;25.60;64.40;;;;;;5066471;28;44200;-73
2022/08/15 07:42:41;;;;;;;2.30;2.20;;;25.60;65.30;;;;;;5066547;28;44440;-74
2022/08/15 07:45:31;;;;;;;2.30;2.20;;;25.60;65.20;;;;;;5066567;28;44011;-73
2022/08/15 07:48:24;;;;;;;2.30;2.20;;;25.70;65.00;;;;;;5066949;28;43975;-74
2022/08/15 07:51:06;;;;;;;2.20;2.10;;;25.90;64.60;;;;;;5066278;28;45437;-74
2022/08/15 07:53:50;;;;;;;2.20;2.10;;;25.90;64.20;;;;;;5065922;28;44796;-73
2022/08/15 07:56:26;;;;;;;2.40;2.30;;;25.90;64.20;;;;;;5065900;28;43473;-74
2022/08/15 07:59:20;;;;;;;2.10;2.00;;;25.90;64.20;;;;;;5065575;28;43998;-74
2022/08/15 08:02:25;;;;;;;2.20;2.10;;;25.80;64.50;;;;;;5066341;28;43580;-73
2022/08/15 08:05:08;;;;;;;2.20;2.10;;;25.80;64.60;;;;;;5066435;28;44386;-74
2022/08/15 08:07:40;;;;;;;2.10;2.00;;;25.70;64.10;;;;;;5060008;28;44049;-73
2022/08/15 08:10:20;;;;;;;2.17;2.08;;;25.70;65.00;;;;;;5066591;28;44035;-73
2022/08/15 08:13:04;;;;;;;2.00;1.90;;;25.60;65.00;;;;;;5065787;28;44054;-73
2022/08/15 08:15:52;;;;;;;1.90;1.80;;;25.70;65.00;;;;;;5059475;28;44010;-74
2022/08/15 08:18:27;;;;;;;2.47;2.27;;;25.60;64.40;;;;;;5059864;28;43999;-73
2022/08/15 08:20:58;;;;;;;2.37;2.27;;;25.60;66.10;;;;;;5066026;28;43943;-73
2022/08/15 08:23:32;;;;;;;2.20;2.10;;;25.60;66.00;;;;;;5065169;28;43826;-74
2022/08/15 08:26:10;;;;;;;2.17;2.07;;;25.70;65.70;;;;;;5065587;28;43954;-73
2022/08/15 08:28:55;;;;;;;2.17;2.00;;;25.80;64.70;;;;;;5065697;28;44045;-73
2022/08/15 08:31:26;;;;;;;1.87;1.87;;;25.90;64.60;;;;;;5066089;28;44306;-73
2022/08/15 08:34:05;;;;;;;2.03;1.93;;;25.80;64.40;;;;;;5060464;28;45000;-74
2022/08/15 08:36:45;;;;;;;2.00;2.00;;;25.80;65.40;;;;;;5062777;28;44055;-73
2022/08/15 08:39:23;;;;;;;2.17;2.10;;;25.70;65.00;;;;;;5067218;28;43960;-75
2022/08/15 08:42:02;;;;;;;2.07;1.97;;;25.70;64.90;;;;;;5067061;28;44449;-73
2022/08/15 08:44:52;;;;;;;2.00;1.90;;;25.70;64.40;;;;;;5066623;28;44719;-73
2022/08/15 08:47:32;;;;;;;2.03;1.92;;;25.60;65.20;;;;;;5066433;28;44074;-73
2022/08/15 08:50:22;;;;;;;2.10;2.00;;;25.60;65.30;;;;;;5066901;28;43374;-73
2022/08/15 08:53:09;;;;;;;2.27;2.07;;;25.60;65.10;;;;;;5067439;28;44004;-73
2022/08/15 08:55:47;;;;;;;1.80;1.80;;;25.60;64.70;;;;;;5066668;28;44012;-73
2022/08/15 08:58:19;;;;;;;1.80;1.80;;;25.50;65.50;;;;;;5065092;28;44316;-73
2022/08/15 09:01:04;;;;;;;2.20;2.08;;;25.60;65.50;;;;;;5066795;28;43417;-72
2022/08/15 09:03:34;;;;;;;1.90;1.90;;;25.60;65.00;;;;;;5065017;28;43503;-73
2022/08/15 09:06:06;;;;;;;1.97;1.87;;;25.70;64.70;;;;;;5066340;28;45129;-73
2022/08/15 09:08:55;;;;;;;2.00;1.90;;;25.90;64.50;;;;;;5066121;28;44030;-73
2022/08/15 09:11:27;;;;;;;1.87;1.77;;;25.80;64.30;;;;;;5065894;28;43964;-73
2022/08/15 09:13:55;;;;;;;1.80;1.80;;;25.80;64.30;;;;;;5065833;28;43967;-74
2022/08/15 09:16:25;;;;;;;2.50;2.40;;;25.70;64.70;;;;;;5066286;28;44657;-73
2022/08/15 09:19:11;;;;;;;1.93;1.93;;;25.70;64.80;;;;;;5066210;28;43941;-73
2022/08/15 09:21:40;;;;;;;2.10;2.00;;;25.70;64.50;;;;;;5066466;28;44038;-74
2022/08/15 09:24:10;;;;;;;1.70;1.70;;;25.60;64.60;;;;;;5067184;28;43860;-72
2022/08/15 09:27:02;;;;;;;1.70;1.70;;;25.60;65.30;;;;;;5066088;28;43823;-74
2022/08/15 09:29:31;;;;;;;2.23;2.10;;;25.60;65.30;;;;;;5064941;28;45841;-73
2022/08/15 09:32:10;;;;;;;1.83;1.80;;;25.60;64.80;;;;;;5066562;28;43975;-72
2022/08/15 09:35:12;;;;;;;1.93;1.83;;;25.50;65.00;;;;;;5066816;28;44050;-73
2022/08/15 09:37:59;;;;;;;1.87;1.87;;;25.50;65.60;;;;;;5065608;28;44811;-73
2022/08/15 09:40:51;;;;;;;1.80;1.80;;;25.60;65.30;;;;;;5065269;28;44021;-73
2022/08/15 09:43:57;;;;;;;2.10;2.00;;;25.70;64.80;;;;;;5066580;28;43903;-74
2022/08/15 09:47:08;;;;;;;2.00;2.00;;;25.80;64.60;;;;;;5066326;28;43944;-74
2022/08/15 09:49:49;;;;;;;2.20;2.10;;;25.80;64.50;;;;;;5024446;28;45429;-72
2022/08/15 09:52:26;;;;;;;2.00;2.00;;;25.70;64.40;;;;;;5065852;28;44175;-73
2022/08/15 09:55:15;;;;;;;1.83;1.83;;;25.60;64.90;;;;;;5066153;28;44019;-73
2022/08/15 09:57:46;;;;;;;1.70;1.70;;;25.60;64.90;;;;;;5059472;28;43766;-73
2022/08/15 10:00:28;;;;;;;1.60;1.60;;;25.60;64.50;;;;;;5064377;28;45605;-74
2022/08/15 10:03:01;;;;;;;1.80;1.80;;;25.60;65.00;;;;;;5066131;28;43903;-73
2022/08/15 10:05:42;;;;;;;1.70;1.70;;;25.60;65.40;;;;;;5064217;28;44041;-73
2022/08/15 10:08:11;;;;;;;2.20;2.10;;;25.50;65.20;;;;;;5064585;28;44058;-73
2022/08/15 10:11:10;;;;;;;1.90;1.80;;;25.50;64.70;;;;;;5064152;28;46700;-73
2022/08/15 10:13:47;;;;;;;2.00;1.90;;;25.50;65.40;;;;;;5065576;28;44021;-72
2022/08/15 10:16:41;;;;;;;1.60;1.60;;;25.50;65.60;;;;;;5065605;28;44019;-74
2022/08/15 10:19:13;;;;;;;2.00;1.90;;;25.60;65.30;;;;;;5066229;28;43411;-73
2022/08/15 10:21:41;;;;;;;1.70;1.70;;;25.60;64.70;;;;;;5065643;28;43615;-72
2022/08/15 10:24:24;;;;;;;1.90;1.90;;;25.80;64.50;;;;;;5069532;28;44340;-73
2022/08/15 10:27:15;;;;;;;2.20;2.00;;;25.80;64.40;;;;;;5069315;28;44041;-73
2022/08/15 10:29:47;;;;;;;2.00;2.00;;;25.80;64.20;;;;;;5069478;28;43932;-73
2022/08/15 10:32:25;;;;;;;2.00;1.90;;;25.70;64.70;;;;;;5068966;28;43835;-74
2022/08/15 10:35:07;;;;;;;2.10;2.00;;;25.60;64.70;;;;;;5068817;28;43959;-73
2022/08/15 10:37:38;;;;;;;2.00;2.00;;;25.60;64.60;;;;;;5069138;28;43947;-73
2022/08/15 10:40:43;;;;;;;1.93;1.93;;;25.60;64.30;;;;;;5068988;28;43948;-74
2022/08/15 10:43:24;;;;;;;2.00;2.00;;;25.50;65.10;;;;;;5064492;28;44642;-73
2022/08/15 10:46:19;;;;;;;1.83;1.83;;;25.50;65.30;;;;;;5068946;28;43879;-73
2022/08/15 10:49:08;;;;;;;1.97;1.97;;;25.50;64.80;;;;;;5067184;28;44007;-74
2022/08/15 10:51:53;;;;;;;2.00;1.90;;;25.50;64.90;;;;;;5069441;28;43290;-74
2022/08/15 10:54:30;;;;;;;2.20;2.10;;;25.50;65.50;;;;;;5067168;28;45694;-73
2022/08/15 10:57:05;;;;;;;2.00;2.00;;;25.50;65.30;;;;;;5068767;28;43827;-73
2022/08/15 10:59:40;;;;;;;1.83;1.83;;;25.60;65.00;;;;;;5068675;28;44009;-73
2022/08/15 11:02:11;;;;;;;1.90;1.80;;;25.70;64.60;;;;;;5069087;28;43973;-74
2022/08/15 11:04:40;;;;;;;1.83;1.83;;;25.80;64.50;;;;;;5067061;28;46224;-73
2022/08/15 11:07:33;;;;;;;2.07;2.07;;;25.70;64.20;;;;;;5068281;28;43963;-73
2022/08/15 11:10:05;;;;;;;2.00;2.00;;;25.70;64.50;;;;;;5068906;28;43729;-73
2022/08/15 11:12:49;;;;;;;1.90;1.90;;;25.60;64.80;;;;;;5064668;28;43948;-73
2022/08/15 11:15:23;;;;;;;1.80;1.80;;;25.60;64.70;;;;;;5067196;28;45559;-74
2022/08/15 11:18:00;;;;;;;1.80;1.80;;;25.60;65.20;;;;;;5068600;28;44222;-74
2022/08/15 11:20:52;;;;;;;2.10;2.00;;;25.50;65.00;;;;;;5068307;28;43939;-73
2022/08/15 11:23:31;;;;;;;1.80;1.80;;;25.50;65.30;;;;;;5068766;28;43959;-73
2022/08/15 11:26:00;;;;;;;1.67;1.67;;;25.50;65.00;;;;;;5068193;28;43987;-73
2022/08/15 11:28:30;;;;;;;2.10;2.10;;;25.50;64.70;;;;;;5068336;28;43754;-73
2022/08/15 11:31:20;;;;;;;2.00;2.00;;;25.50;65.60;;;;;;5068144;28;43991;-74
2022/08/15 11:33:49;;;;;;;2.00;2.00;;;25.40;65.70;;;;;;5067322;28;43424;-73
2022/08/15 11:36:18;;;;;;;1.70;1.70;;;25.50;65.30;;;;;;5067908;28;44097;-73
2022/08/15 11:38:47;;;;;;;2.00;1.90;;;25.60;65.00;;;;;;5067964;28;44440;-74
2022/08/15 11:41:41;;;;;;;1.83;1.80;;;25.70;64.80;;;;;;5067219;28;43915;-73
2022/08/15 11:44:17;;;;;;;3.00;2.10;;;25.70;64.50;;;;;;5068357;28;43758;-73
2022/08/15 11:46:51;;;;;;;2.30;2.30;;;25.70;64.40;;;;;;5067933;28;44014;-74
2022/08/15 11:49:30;;;;;;;2.25;2.20;;;25.60;64.30;;;;;;5066086;28;44521;-74
2022/08/15 11:52:05;;;;;;;2.60;2.40;;;25.60;64.30;;;;;;5061852;28;43921;-73
2022/08/15 11:55:10;;;;;;;2.40;2.30;;;25.60;64.20;;;;;;5063940;28;44081;-72
2022/08/15 11:57:41;;;;;;;2.73;2.63;;;25.50;64.30;;;;;;5067540;28;44014;-74
2022/08/15 12:00:14;;;;;;;2.60;2.60;;;25.50;64.90;;;;;;5067515;28;44021;-73
2022/08/15 12:02:53;;;;;;;2.50;2.40;;;25.50;64.60;;;;;;5062949;28;43999;-73
2022/08/15 12:05:41;;;;;;;2.60;2.53;;;25.60;64.20;;;;;;5067996;28;44001;-73
2022/08/15 12:08:30;;;;;;;2.90;2.63;;;25.60;63.90;;;;;;5066828;28;44127;-73
2022/08/15 12:11:05;;;;;;;2.50;2.47;;;25.70;63.90;;;;;;5067671;28;43999;-73
2022/08/15 12:13:34;;;;;;;2.73;2.60;;;25.60;63.60;;;;;;5067636;28;43446;-75
2022/08/15 12:16:04;;;;;;;2.50;2.50;;;25.60;64.30;;;;;;5067914;28;44030;-74
2022/08/15 12:18:53;;;;;;;2.80;2.70;;;25.60;64.30;;;;;;5067296;28;43976;-74
2022/08/15 12:21:23;;;;;;;2.60;2.50;;;25.50;64.10;;;;;;5066672;28;43998;-73
2022/08/15 12:23:54;;;;;;;2.80;2.70;;;25.50;63.70;;;;;;5065628;28;44052;-74
2022/08/15 12:26:26;;;;;;;2.50;2.50;;;25.50;64.70;;;;;;5067472;28;43411;-73
2022/08/15 12:29:14;;;;;;;2.45;2.40;;;25.50;64.90;;;;;;5066018;28;44225;-72
2022/08/15 12:31:46;;;;;;;2.72;2.63;;;25.40;64.30;;;;;;5065497;28;44768;-74
2022/08/15 12:34:16;;;;;;;2.43;2.37;;;25.40;63.80;;;;;;5065811;28;43435;-74
2022/08/15 12:37:00;;;;;;;2.70;2.60;;;25.40;64.90;;;;;;5067646;28;43446;-74
2022/08/15 12:39:37;;;;;;;2.47;2.37;;;25.40;65.00;;;;;;5066630;28;43892;-73
2022/08/15 12:42:08;;;;;;;2.70;2.60;;;25.50;64.80;;;;;;5060494;28;43910;-74
2022/08/15 12:44:58;;;;;;;2.70;2.50;;;25.60;64.20;;;;;;5066611;28;43957;-74
2022/08/15 12:47:28;;;;;;;2.47;2.40;;;25.60;64.00;;;;;;5066912;28;43884;-73
2022/08/15 12:50:01;;;;;;;2.37;2.27;;;25.60;63.80;;;;;;5066676;28;45089;-73
2022/08/15 12:52:29;;;;;;;2.70;2.60;;;25.60;63.50;;;;;;5064922;28;44040;-74
2022/08/15 12:54:57;;;;;;;2.60;2.50;;;25.60;64.50;;;;;;5066997;28;43394;-74
2022/08/15 12:57:28;;;;;;;2.50;2.40;;;25.60;64.50;;;;;;5066997;28;43471;-73
2022/08/15 13:00:17;;;;;;;2.30;2.30;;;25.50;64.20;;;;;;5066286;28;44046;-73
2022/08/15 13:03:16;;;;;;;2.40;2.40;;;25.50;63.80;;;;;;5066387;28;44043;-73
2022/08/15 13:05:58;;;;;;;2.10;2.10;;;25.50;65.00;;;;;;5066566;28;44030;-74
2022/08/15 13:08:47;;;;;;;2.87;2.77;;;25.50;65.80;;;;;;5063455;28;43980;-72
2022/08/15 13:11:21;;;;;;;2.33;2.33;;;25.40;64.50;;;;;;5066270;28;43892;-74
2022/08/15 13:13:49;;;;;;;2.83;2.63;;;25.40;64.00;;;;;;5065017;28;45066;-74
2022/08/15 13:16:22;;;;;;;2.57;2.57;;;25.40;65.30;;;;;;5064803;28;44045;-73
2022/08/15 13:19:12;;;;;;;2.47;2.47;;;25.40;65.40;;;;;;5067155;28;43450;-73
2022/08/15 13:24:57;;;;;;;2.23;2.23;;;25.60;64.40;;;;;;5064987;28;44981;-73
2022/08/15 13:27:29;;;;;;;2.67;2.50;;;25.70;64.10;;;;;;5064460;28;44333;-73
2022/08/15 13:29:57;;;;;;;2.60;2.60;;;25.70;64.00;;;;;;5065206;28;43383;-74
2022/08/15 13:32:29;;;;;;;2.92;2.83;;;25.70;63.90;;;;;;5066000;28;44817;-74
2022/08/15 13:34:57;;;;;;;2.53;2.42;;;25.60;64.30;;;;;;5064422;28;44532;-74
2022/08/15 13:37:29;;;;;;;2.70;2.60;;;25.60;64.50;;;;;;5065793;28;43964;-74
2022/08/15 13:40:18;;;;;;;3.23;2.30;;;25.60;64.40;;;;;;5066254;28;43892;-73
2022/08/15 13:42:59;;;;;;;2.80;2.60;;;25.50;64.70;;;;;;5066358;28;44019;-74
2022/08/15 13:45:39;;;;;;;2.40;2.40;;;25.50;64.90;;;;;;5060177;28;44438;-73
2022/08/15 13:48:32;;;;;;;2.60;2.50;;;25.50;64.90;;;;;;5064401;28;44237;-74